sensor_id;sensor_type;location;lat;lon;timestamp;P1;durP1;ratioP1;P2;durP2;ratioP2
56116;SDS011;41989;45.356;20.392;2023-06-01T00:00:34;92.38;;;69.88;;
56116;SDS011;41989;45.356;20.392;2023-06-01T00:03:03;121.10;;;98.47;;
56116;SDS011;41989;45.356;20.392;2023-06-01T00:05:29;101.78;;;82.78;;
56116;SDS011;41989;45.356;20.392;2023-06-01T00:07:55;108.00;;;86.55;;
56116;SDS011;41989;45.356;20.392;2023-06-01T00:10:21;125.57;;;100.97;;
56116;SDS011;41989;45.356;20.392;2023-06-01T00:12:47;119.47;;;90.82;;
56116;SDS011;41989;45.356;20.392;2023-06-01T00:15:13;95.63;;;67.82;;
56116;SDS011;41989;45.356;20.392;2023-06-01T00:17:40;61.58;;;49.35;;
56116;SDS011;41989;45.356;20.392;2023-06-01T00:20:06;68.30;;;48.08;;
56116;SDS011;41989;45.356;20.392;2023-06-01T00:22:33;84.40;;;61.60;;
56116;SDS011;41989;45.356;20.392;2023-06-01T00:25:05;115.55;;;91.18;;
56116;SDS011;41989;45.356;20.392;2023-06-01T00:27:32;121.07;;;98.30;;
56116;SDS011;41989;45.356;20.392;2023-06-01T00:29:58;119.07;;;99.70;;
56116;SDS011;41989;45.356;20.392;2023-06-01T00:32:24;106.35;;;87.32;;
56116;SDS011;41989;45.356;20.392;2023-06-01T00:34:50;79.47;;;63.35;;
56116;SDS011;41989;45.356;20.392;2023-06-01T00:37:16;41.38;;;31.38;;
56116;SDS011;41989;45.356;20.392;2023-06-01T00:39:42;29.23;;;15.70;;
56116;SDS011;41989;45.356;20.392;2023-06-01T00:42:09;19.58;;;10.90;;
56116;SDS011;41989;45.356;20.392;2023-06-01T00:44:35;18.85;;;10.65;;
56116;SDS011;41989;45.356;20.392;2023-06-01T00:47:04;20.23;;;11.15;;
56116;SDS011;41989;45.356;20.392;2023-06-01T00:49:30;18.10;;;10.85;;
56116;SDS011;41989;45.356;20.392;2023-06-01T00:51:56;17.08;;;11.90;;
56116;SDS011;41989;45.356;20.392;2023-06-01T00:54:22;18.65;;;11.00;;
56116;SDS011;41989;45.356;20.392;2023-06-01T00:56:48;12.48;;;10.38;;
56116;SDS011;41989;45.356;20.392;2023-06-01T00:59:15;16.83;;;10.77;;
56116;SDS011;41989;45.356;20.392;2023-06-01T01:01:41;21.60;;;11.43;;
56116;SDS011;41989;45.356;20.392;2023-06-01T01:04:08;15.43;;;10.77;;
56116;SDS011;41989;45.356;20.392;2023-06-01T01:09:20;13.80;;;10.32;;
56116;SDS011;41989;45.356;20.392;2023-06-01T01:11:57;17.88;;;9.75;;
56116;SDS011;41989;45.356;20.392;2023-06-01T01:14:28;19.65;;;11.52;;
56116;SDS011;41989;45.356;20.392;2023-06-01T01:17:42;23.17;;;11.20;;
56116;SDS011;41989;45.356;20.392;2023-06-01T01:19:50;22.05;;;12.57;;
56116;SDS011;41989;45.356;20.392;2023-06-01T01:22:25;16.63;;;13.68;;
56116;SDS011;41989;45.356;20.392;2023-06-01T01:29:57;18.67;;;12.65;;
56116;SDS011;41989;45.356;20.392;2023-06-01T01:32:30;17.85;;;12.13;;
56116;SDS011;41989;45.356;20.392;2023-06-01T01:34:58;19.38;;;12.07;;
56116;SDS011;41989;45.356;20.392;2023-06-01T01:37:25;16.83;;;12.45;;
56116;SDS011;41989;45.356;20.392;2023-06-01T01:39:51;19.88;;;11.25;;
56116;SDS011;41989;45.356;20.392;2023-06-01T01:42:17;19.23;;;10.60;;
56116;SDS011;41989;45.356;20.392;2023-06-01T01:44:44;19.48;;;10.75;;
56116;SDS011;41989;45.356;20.392;2023-06-01T01:47:20;15.77;;;11.00;;
56116;SDS011;41989;45.356;20.392;2023-06-01T01:49:48;20.92;;;11.65;;
56116;SDS011;41989;45.356;20.392;2023-06-01T01:54:46;18.25;;;10.45;;
56116;SDS011;41989;45.356;20.392;2023-06-01T01:57:13;18.15;;;10.73;;
56116;SDS011;41989;45.356;20.392;2023-06-01T01:59:40;19.98;;;10.35;;
56116;SDS011;41989;45.356;20.392;2023-06-01T02:02:06;19.15;;;11.98;;
56116;SDS011;41989;45.356;20.392;2023-06-01T02:04:32;23.10;;;11.55;;
56116;SDS011;41989;45.356;20.392;2023-06-01T02:06:58;17.50;;;11.00;;
56116;SDS011;41989;45.356;20.392;2023-06-01T02:09:24;20.95;;;11.73;;
56116;SDS011;41989;45.356;20.392;2023-06-01T02:11:50;26.55;;;11.77;;
56116;SDS011;41989;45.356;20.392;2023-06-01T02:14:16;20.30;;;11.50;;
56116;SDS011;41989;45.356;20.392;2023-06-01T02:16:42;17.17;;;11.93;;
56116;SDS011;41989;45.356;20.392;2023-06-01T02:19:09;16.55;;;11.27;;
56116;SDS011;41989;45.356;20.392;2023-06-01T02:21:36;17.67;;;12.20;;
56116;SDS011;41989;45.356;20.392;2023-06-01T02:24:02;18.63;;;11.82;;
56116;SDS011;41989;45.356;20.392;2023-06-01T02:26:31;19.25;;;11.88;;
56116;SDS011;41989;45.356;20.392;2023-06-01T02:28:57;18.30;;;11.77;;
56116;SDS011;41989;45.356;20.392;2023-06-01T02:31:23;16.63;;;11.82;;
56116;SDS011;41989;45.356;20.392;2023-06-01T02:33:50;19.40;;;12.60;;
56116;SDS011;41989;45.356;20.392;2023-06-01T02:36:16;20.38;;;12.48;;
56116;SDS011;41989;45.356;20.392;2023-06-01T02:38:43;29.08;;;14.13;;
56116;SDS011;41989;45.356;20.392;2023-06-01T02:41:10;19.02;;;10.93;;
56116;SDS011;41989;45.356;20.392;2023-06-01T02:43:37;17.38;;;12.10;;
56116;SDS011;41989;45.356;20.392;2023-06-01T02:46:03;17.77;;;9.85;;
56116;SDS011;41989;45.356;20.392;2023-06-01T02:48:29;17.15;;;11.73;;
56116;SDS011;41989;45.356;20.392;2023-06-01T02:50:56;14.35;;;10.85;;
56116;SDS011;41989;45.356;20.392;2023-06-01T02:53:22;20.30;;;11.40;;
56116;SDS011;41989;45.356;20.392;2023-06-01T02:55:48;14.95;;;10.20;;
56116;SDS011;41989;45.356;20.392;2023-06-01T02:58:14;14.48;;;10.63;;
56116;SDS011;41989;45.356;20.392;2023-06-01T03:00:43;16.08;;;11.48;;
56116;SDS011;41989;45.356;20.392;2023-06-01T03:03:10;19.60;;;12.07;;
56116;SDS011;41989;45.356;20.392;2023-06-01T03:05:37;16.67;;;9.77;;
56116;SDS011;41989;45.356;20.392;2023-06-01T03:08:03;12.35;;;9.93;;
56116;SDS011;41989;45.356;20.392;2023-06-01T03:10:32;14.15;;;9.60;;
56116;SDS011;41989;45.356;20.392;2023-06-01T03:12:58;14.50;;;11.50;;
56116;SDS011;41989;45.356;20.392;2023-06-01T03:15:24;14.68;;;11.07;;
56116;SDS011;41989;45.356;20.392;2023-06-01T03:17:52;15.05;;;10.18;;
56116;SDS011;41989;45.356;20.392;2023-06-01T03:20:18;21.02;;;11.52;;
56116;SDS011;41989;45.356;20.392;2023-06-01T03:22:47;18.05;;;10.95;;
56116;SDS011;41989;45.356;20.392;2023-06-01T03:25:13;22.38;;;12.10;;
56116;SDS011;41989;45.356;20.392;2023-06-01T03:27:41;17.58;;;11.30;;
56116;SDS011;41989;45.356;20.392;2023-06-01T03:30:08;15.30;;;11.73;;
56116;SDS011;41989;45.356;20.392;2023-06-01T03:32:38;23.98;;;11.45;;
56116;SDS011;41989;45.356;20.392;2023-06-01T03:35:06;28.85;;;15.95;;
56116;SDS011;41989;45.356;20.392;2023-06-01T03:37:36;21.05;;;12.60;;
56116;SDS011;41989;45.356;20.392;2023-06-01T03:40:02;23.85;;;13.85;;
56116;SDS011;41989;45.356;20.392;2023-06-01T03:42:37;16.13;;;12.02;;
56116;SDS011;41989;45.356;20.392;2023-06-01T03:45:04;19.13;;;12.82;;
56116;SDS011;41989;45.356;20.392;2023-06-01T03:47:30;21.50;;;13.35;;
56116;SDS011;41989;45.356;20.392;2023-06-01T03:49:57;21.35;;;13.30;;
56116;SDS011;41989;45.356;20.392;2023-06-01T03:52:24;23.10;;;13.75;;
56116;SDS011;41989;45.356;20.392;2023-06-01T03:54:50;20.17;;;14.30;;
56116;SDS011;41989;45.356;20.392;2023-06-01T03:57:17;26.13;;;14.13;;
56116;SDS011;41989;45.356;20.392;2023-06-01T03:59:43;21.88;;;12.55;;
56116;SDS011;41989;45.356;20.392;2023-06-01T04:02:09;23.90;;;15.30;;
56116;SDS011;41989;45.356;20.392;2023-06-01T04:04:35;19.38;;;13.05;;
56116;SDS011;41989;45.356;20.392;2023-06-01T04:07:02;19.88;;;13.68;;
56116;SDS011;41989;45.356;20.392;2023-06-01T04:09:31;16.67;;;13.73;;
56116;SDS011;41989;45.356;20.392;2023-06-01T04:11:57;24.40;;;15.00;;
56116;SDS011;41989;45.356;20.392;2023-06-01T04:14:23;22.67;;;14.90;;
56116;SDS011;41989;45.356;20.392;2023-06-01T04:16:50;25.42;;;14.70;;
56116;SDS011;41989;45.356;20.392;2023-06-01T04:19:16;16.63;;;13.45;;
56116;SDS011;41989;45.356;20.392;2023-06-01T04:21:42;21.05;;;13.52;;
56116;SDS011;41989;45.356;20.392;2023-06-01T04:24:08;22.38;;;14.15;;
56116;SDS011;41989;45.356;20.392;2023-06-01T04:26:34;25.33;;;13.77;;
56116;SDS011;41989;45.356;20.392;2023-06-01T04:29:01;20.50;;;14.38;;
56116;SDS011;41989;45.356;20.392;2023-06-01T04:31:27;21.48;;;12.85;;
56116;SDS011;41989;45.356;20.392;2023-06-01T04:33:59;17.30;;;12.75;;
56116;SDS011;41989;45.356;20.392;2023-06-01T04:36:28;20.42;;;13.93;;
56116;SDS011;41989;45.356;20.392;2023-06-01T04:39:04;23.33;;;14.63;;
56116;SDS011;41989;45.356;20.392;2023-06-01T04:41:31;23.90;;;15.65;;
56116;SDS011;41989;45.356;20.392;2023-06-01T04:43:58;20.38;;;13.63;;
56116;SDS011;41989;45.356;20.392;2023-06-01T04:46:24;33.80;;;17.08;;
56116;SDS011;41989;45.356;20.392;2023-06-01T04:48:51;22.30;;;14.70;;
56116;SDS011;41989;45.356;20.392;2023-06-01T04:51:18;27.90;;;15.80;;
56116;SDS011;41989;45.356;20.392;2023-06-01T04:53:48;32.88;;;18.33;;
56116;SDS011;41989;45.356;20.392;2023-06-01T04:56:19;32.85;;;17.83;;
56116;SDS011;41989;45.356;20.392;2023-06-01T04:58:49;28.52;;;14.88;;
56116;SDS011;41989;45.356;20.392;2023-06-01T05:01:18;21.80;;;14.73;;
56116;SDS011;41989;45.356;20.392;2023-06-01T05:03:44;22.17;;;14.88;;
56116;SDS011;41989;45.356;20.392;2023-06-01T05:06:11;21.13;;;14.60;;
56116;SDS011;41989;45.356;20.392;2023-06-01T05:08:40;20.13;;;13.15;;
56116;SDS011;41989;45.356;20.392;2023-06-01T05:11:07;18.33;;;12.80;;
56116;SDS011;41989;45.356;20.392;2023-06-01T05:13:39;20.73;;;13.60;;
56116;SDS011;41989;45.356;20.392;2023-06-01T05:16:06;17.52;;;13.55;;
56116;SDS011;41989;45.356;20.392;2023-06-01T05:18:32;16.85;;;12.98;;
56116;SDS011;41989;45.356;20.392;2023-06-01T05:20:58;22.20;;;13.63;;
56116;SDS011;41989;45.356;20.392;2023-06-01T05:23:25;19.65;;;12.38;;
56116;SDS011;41989;45.356;20.392;2023-06-01T05:25:51;14.95;;;11.55;;
56116;SDS011;41989;45.356;20.392;2023-06-01T05:28:20;15.38;;;11.57;;
56116;SDS011;41989;45.356;20.392;2023-06-01T05:30:46;15.82;;;11.80;;
56116;SDS011;41989;45.356;20.392;2023-06-01T05:33:13;21.83;;;12.73;;
56116;SDS011;41989;45.356;20.392;2023-06-01T05:35:41;17.20;;;13.02;;
56116;SDS011;41989;45.356;20.392;2023-06-01T05:38:11;20.60;;;12.80;;
56116;SDS011;41989;45.356;20.392;2023-06-01T05:40:37;14.25;;;11.50;;
56116;SDS011;41989;45.356;20.392;2023-06-01T05:43:04;16.20;;;10.20;;
56116;SDS011;41989;45.356;20.392;2023-06-01T05:45:31;11.52;;;9.60;;
56116;SDS011;41989;45.356;20.392;2023-06-01T05:48:01;11.85;;;9.90;;
56116;SDS011;41989;45.356;20.392;2023-06-01T05:50:27;13.50;;;10.30;;
56116;SDS011;41989;45.356;20.392;2023-06-01T05:52:53;13.13;;;9.82;;
56116;SDS011;41989;45.356;20.392;2023-06-01T05:55:19;13.20;;;9.57;;
56116;SDS011;41989;45.356;20.392;2023-06-01T05:57:46;14.10;;;10.23;;
56116;SDS011;41989;45.356;20.392;2023-06-01T06:00:12;13.68;;;9.55;;
56116;SDS011;41989;45.356;20.392;2023-06-01T06:02:40;11.60;;;9.60;;
56116;SDS011;41989;45.356;20.392;2023-06-01T06:05:07;13.27;;;9.05;;
56116;SDS011;41989;45.356;20.392;2023-06-01T06:07:34;13.85;;;8.93;;
56116;SDS011;41989;45.356;20.392;2023-06-01T06:10:03;13.70;;;9.13;;
56116;SDS011;41989;45.356;20.392;2023-06-01T06:12:30;12.82;;;7.72;;
56116;SDS011;41989;45.356;20.392;2023-06-01T06:14:56;9.57;;;6.57;;
56116;SDS011;41989;45.356;20.392;2023-06-01T06:17:22;11.10;;;7.18;;
56116;SDS011;41989;45.356;20.392;2023-06-01T06:19:48;9.95;;;6.50;;
56116;SDS011;41989;45.356;20.392;2023-06-01T06:22:16;9.05;;;6.57;;
56116;SDS011;41989;45.356;20.392;2023-06-01T06:24:43;8.85;;;6.45;;
56116;SDS011;41989;45.356;20.392;2023-06-01T06:27:12;10.38;;;7.15;;
56116;SDS011;41989;45.356;20.392;2023-06-01T06:29:41;8.77;;;6.90;;
56116;SDS011;41989;45.356;20.392;2023-06-01T06:32:07;10.90;;;6.72;;
56116;SDS011;41989;45.356;20.392;2023-06-01T06:34:33;10.00;;;6.90;;
56116;SDS011;41989;45.356;20.392;2023-06-01T06:37:05;12.93;;;7.72;;
56116;SDS011;41989;45.356;20.392;2023-06-01T06:39:32;12.60;;;7.32;;
56116;SDS011;41989;45.356;20.392;2023-06-01T06:42:02;13.18;;;6.82;;
56116;SDS011;41989;45.356;20.392;2023-06-01T06:44:28;9.95;;;6.60;;
56116;SDS011;41989;45.356;20.392;2023-06-01T06:46:54;10.68;;;6.57;;
56116;SDS011;41989;45.356;20.392;2023-06-01T06:49:21;11.25;;;7.13;;
56116;SDS011;41989;45.356;20.392;2023-06-01T06:51:50;8.90;;;6.85;;
56116;SDS011;41989;45.356;20.392;2023-06-01T06:54:16;9.75;;;6.28;;
56116;SDS011;41989;45.356;20.392;2023-06-01T06:56:42;10.82;;;6.88;;
56116;SDS011;41989;45.356;20.392;2023-06-01T06:59:09;11.00;;;6.85;;
56116;SDS011;41989;45.356;20.392;2023-06-01T07:01:35;9.30;;;6.72;;
56116;SDS011;41989;45.356;20.392;2023-06-01T07:04:03;11.75;;;6.93;;
56116;SDS011;41989;45.356;20.392;2023-06-01T07:06:30;7.00;;;6.30;;
56116;SDS011;41989;45.356;20.392;2023-06-01T07:08:57;8.25;;;5.93;;
56116;SDS011;41989;45.356;20.392;2023-06-01T07:11:24;7.35;;;6.25;;
56116;SDS011;41989;45.356;20.392;2023-06-01T07:13:52;13.95;;;6.32;;
56116;SDS011;41989;45.356;20.392;2023-06-01T07:16:18;8.20;;;6.45;;
56116;SDS011;41989;45.356;20.392;2023-06-01T07:18:44;10.30;;;6.32;;
56116;SDS011;41989;45.356;20.392;2023-06-01T07:21:10;8.15;;;6.40;;
56116;SDS011;41989;45.356;20.392;2023-06-01T07:23:36;7.38;;;6.20;;
56116;SDS011;41989;45.356;20.392;2023-06-01T07:26:02;9.40;;;6.07;;
56116;SDS011;41989;45.356;20.392;2023-06-01T07:28:28;8.82;;;6.07;;
56116;SDS011;41989;45.356;20.392;2023-06-01T07:30:55;7.65;;;5.40;;
56116;SDS011;41989;45.356;20.392;2023-06-01T07:33:21;7.38;;;5.53;;
56116;SDS011;41989;45.356;20.392;2023-06-01T07:35:47;8.73;;;6.10;;
56116;SDS011;41989;45.356;20.392;2023-06-01T07:38:17;9.02;;;6.60;;
56116;SDS011;41989;45.356;20.392;2023-06-01T07:40:45;9.50;;;6.50;;
56116;SDS011;41989;45.356;20.392;2023-06-01T07:43:11;8.57;;;6.28;;
56116;SDS011;41989;45.356;20.392;2023-06-01T07:45:38;9.18;;;6.85;;
56116;SDS011;41989;45.356;20.392;2023-06-01T07:48:06;10.40;;;5.63;;
56116;SDS011;41989;45.356;20.392;2023-06-01T07:50:32;9.60;;;5.68;;
56116;SDS011;41989;45.356;20.392;2023-06-01T07:52:58;7.28;;;5.57;;
56116;SDS011;41989;45.356;20.392;2023-06-01T07:55:25;8.70;;;5.40;;
56116;SDS011;41989;45.356;20.392;2023-06-01T07:57:51;12.75;;;6.13;;
56116;SDS011;41989;45.356;20.392;2023-06-01T08:00:18;7.28;;;4.72;;
56116;SDS011;41989;45.356;20.392;2023-06-01T08:02:44;7.30;;;5.10;;
56116;SDS011;41989;45.356;20.392;2023-06-01T08:05:10;5.93;;;4.53;;
56116;SDS011;41989;45.356;20.392;2023-06-01T08:07:39;7.43;;;4.80;;
56116;SDS011;41989;45.356;20.392;2023-06-01T08:10:07;6.18;;;4.97;;
56116;SDS011;41989;45.356;20.392;2023-06-01T08:12:34;6.55;;;4.93;;
56116;SDS011;41989;45.356;20.392;2023-06-01T08:15:01;7.97;;;5.32;;
56116;SDS011;41989;45.356;20.392;2023-06-01T08:17:30;6.82;;;5.15;;
56116;SDS011;41989;45.356;20.392;2023-06-01T08:20:00;5.65;;;3.92;;
56116;SDS011;41989;45.356;20.392;2023-06-01T08:22:31;7.20;;;4.45;;
56116;SDS011;41989;45.356;20.392;2023-06-01T08:24:58;13.70;;;5.40;;
56116;SDS011;41989;45.356;20.392;2023-06-01T08:27:25;6.68;;;5.07;;
56116;SDS011;41989;45.356;20.392;2023-06-01T08:29:53;10.25;;;5.15;;
56116;SDS011;41989;45.356;20.392;2023-06-01T08:32:19;8.50;;;4.82;;
56116;SDS011;41989;45.356;20.392;2023-06-01T08:34:46;11.82;;;6.30;;
56116;SDS011;41989;45.356;20.392;2023-06-01T08:37:12;7.05;;;5.22;;
56116;SDS011;41989;45.356;20.392;2023-06-01T08:39:39;7.55;;;5.10;;
56116;SDS011;41989;45.356;20.392;2023-06-01T08:42:07;7.75;;;5.03;;
56116;SDS011;41989;45.356;20.392;2023-06-01T08:44:34;7.35;;;5.00;;
56116;SDS011;41989;45.356;20.392;2023-06-01T08:47:02;7.38;;;5.03;;
56116;SDS011;41989;45.356;20.392;2023-06-01T08:49:32;7.88;;;4.72;;
56116;SDS011;41989;45.356;20.392;2023-06-01T08:52:14;7.32;;;4.43;;
56116;SDS011;41989;45.356;20.392;2023-06-01T08:54:45;7.70;;;4.63;;
56116;SDS011;41989;45.356;20.392;2023-06-01T08:57:11;6.50;;;5.10;;
56116;SDS011;41989;45.356;20.392;2023-06-01T08:59:38;8.75;;;5.15;;
56116;SDS011;41989;45.356;20.392;2023-06-01T09:02:04;11.02;;;4.63;;
56116;SDS011;41989;45.356;20.392;2023-06-01T09:04:31;6.57;;;4.45;;
56116;SDS011;41989;45.356;20.392;2023-06-01T09:06:59;10.55;;;4.93;;
56116;SDS011;41989;45.356;20.392;2023-06-01T09:09:25;6.53;;;5.13;;
56116;SDS011;41989;45.356;20.392;2023-06-01T09:14:36;6.95;;;4.85;;
56116;SDS011;41989;45.356;20.392;2023-06-01T09:17:02;7.30;;;4.15;;
56116;SDS011;41989;45.356;20.392;2023-06-01T09:19:44;7.38;;;4.68;;
56116;SDS011;41989;45.356;20.392;2023-06-01T09:22:10;5.75;;;4.00;;
56116;SDS011;41989;45.356;20.392;2023-06-01T09:24:39;6.43;;;4.65;;
56116;SDS011;41989;45.356;20.392;2023-06-01T09:27:08;7.47;;;4.40;;
56116;SDS011;41989;45.356;20.392;2023-06-01T09:29:34;6.20;;;3.83;;
56116;SDS011;41989;45.356;20.392;2023-06-01T09:32:00;7.97;;;4.32;;
56116;SDS011;41989;45.356;20.392;2023-06-01T09:34:26;8.77;;;5.47;;
56116;SDS011;41989;45.356;20.392;2023-06-01T09:36:53;8.73;;;5.20;;
56116;SDS011;41989;45.356;20.392;2023-06-01T09:39:21;5.78;;;4.63;;
56116;SDS011;41989;45.356;20.392;2023-06-01T09:44:24;6.50;;;4.10;;
56116;SDS011;41989;45.356;20.392;2023-06-01T09:46:54;6.35;;;4.57;;
56116;SDS011;41989;45.356;20.392;2023-06-01T09:52:12;9.35;;;4.68;;
56116;SDS011;41989;45.356;20.392;2023-06-01T09:54:42;6.20;;;4.63;;
56116;SDS011;41989;45.356;20.392;2023-06-01T09:57:09;7.25;;;4.70;;
56116;SDS011;41989;45.356;20.392;2023-06-01T09:59:42;6.55;;;4.78;;
56116;SDS011;41989;45.356;20.392;2023-06-01T10:02:18;7.57;;;4.63;;
56116;SDS011;41989;45.356;20.392;2023-06-01T10:04:46;7.00;;;4.40;;
56116;SDS011;41989;45.356;20.392;2023-06-01T10:07:13;7.10;;;4.18;;
56116;SDS011;41989;45.356;20.392;2023-06-01T10:09:41;5.88;;;4.32;;
56116;SDS011;41989;45.356;20.392;2023-06-01T10:12:08;6.40;;;4.00;;
56116;SDS011;41989;45.356;20.392;2023-06-01T10:14:35;5.45;;;4.25;;
56116;SDS011;41989;45.356;20.392;2023-06-01T10:17:03;5.78;;;4.18;;
56116;SDS011;41989;45.356;20.392;2023-06-01T10:19:29;7.57;;;4.97;;
56116;SDS011;41989;45.356;20.392;2023-06-01T10:21:59;6.50;;;4.18;;
56116;SDS011;41989;45.356;20.392;2023-06-01T10:24:25;5.68;;;4.13;;
56116;SDS011;41989;45.356;20.392;2023-06-01T10:29:20;7.20;;;4.95;;
56116;SDS011;41989;45.356;20.392;2023-06-01T10:31:47;11.45;;;5.85;;
56116;SDS011;41989;45.356;20.392;2023-06-01T10:34:13;8.20;;;4.78;;
56116;SDS011;41989;45.356;20.392;2023-06-01T10:39:21;6.28;;;4.45;;
56116;SDS011;41989;45.356;20.392;2023-06-01T10:41:48;6.63;;;4.63;;
56116;SDS011;41989;45.356;20.392;2023-06-01T10:46:59;6.68;;;5.07;;
56116;SDS011;41989;45.356;20.392;2023-06-01T10:49:33;7.28;;;4.50;;
56116;SDS011;41989;45.356;20.392;2023-06-01T10:54:52;6.90;;;5.05;;
56116;SDS011;41989;45.356;20.392;2023-06-01T11:02:33;6.20;;;4.05;;
56116;SDS011;41989;45.356;20.392;2023-06-01T11:07:44;9.73;;;4.68;;
56116;SDS011;41989;45.356;20.392;2023-06-01T11:10:10;6.15;;;4.22;;
56116;SDS011;41989;45.356;20.392;2023-06-01T11:15:26;9.18;;;4.22;;
56116;SDS011;41989;45.356;20.392;2023-06-01T11:17:52;7.32;;;4.50;;
56116;SDS011;41989;45.356;20.392;2023-06-01T11:20:19;7.53;;;4.20;;
56116;SDS011;41989;45.356;20.392;2023-06-01T11:22:54;9.23;;;4.57;;
56116;SDS011;41989;45.356;20.392;2023-06-01T11:25:20;5.70;;;3.88;;
56116;SDS011;41989;45.356;20.392;2023-06-01T11:27:46;5.15;;;3.75;;
56116;SDS011;41989;45.356;20.392;2023-06-01T11:30:17;6.55;;;4.35;;
56116;SDS011;41989;45.356;20.392;2023-06-01T11:32:44;6.85;;;4.07;;
56116;SDS011;41989;45.356;20.392;2023-06-01T11:35:20;4.93;;;4.05;;
56116;SDS011;41989;45.356;20.392;2023-06-01T11:37:53;10.32;;;4.80;;
56116;SDS011;41989;45.356;20.392;2023-06-01T11:40:19;6.90;;;4.45;;
56116;SDS011;41989;45.356;20.392;2023-06-01T11:42:48;4.80;;;4.07;;
56116;SDS011;41989;45.356;20.392;2023-06-01T11:45:14;4.90;;;3.80;;
56116;SDS011;41989;45.356;20.392;2023-06-01T11:47:41;8.25;;;5.10;;
56116;SDS011;41989;45.356;20.392;2023-06-01T11:50:19;6.68;;;4.10;;
56116;SDS011;41989;45.356;20.392;2023-06-01T11:52:46;7.60;;;4.47;;
56116;SDS011;41989;45.356;20.392;2023-06-01T11:55:12;6.60;;;4.35;;
56116;SDS011;41989;45.356;20.392;2023-06-01T11:57:42;7.35;;;5.10;;
56116;SDS011;41989;45.356;20.392;2023-06-01T12:02:36;6.65;;;4.30;;
56116;SDS011;41989;45.356;20.392;2023-06-01T12:05:04;5.97;;;4.38;;
56116;SDS011;41989;45.356;20.392;2023-06-01T12:07:46;7.25;;;4.65;;
56116;SDS011;41989;45.356;20.392;2023-06-01T12:10:13;7.47;;;4.55;;
56116;SDS011;41989;45.356;20.392;2023-06-01T12:12:41;6.45;;;4.40;;
56116;SDS011;41989;45.356;20.392;2023-06-01T12:15:14;5.97;;;4.63;;
56116;SDS011;41989;45.356;20.392;2023-06-01T12:17:53;7.22;;;4.53;;
56116;SDS011;41989;45.356;20.392;2023-06-01T12:22:52;7.65;;;5.07;;
56116;SDS011;41989;45.356;20.392;2023-06-01T12:25:22;7.53;;;3.92;;
56116;SDS011;41989;45.356;20.392;2023-06-01T12:28:06;7.20;;;4.70;;
56116;SDS011;41989;45.356;20.392;2023-06-01T12:30:35;6.55;;;4.25;;
56116;SDS011;41989;45.356;20.392;2023-06-01T12:33:01;7.70;;;4.13;;
56116;SDS011;41989;45.356;20.392;2023-06-01T12:35:29;7.80;;;4.15;;
56116;SDS011;41989;45.356;20.392;2023-06-01T12:38:05;7.70;;;4.40;;
56116;SDS011;41989;45.356;20.392;2023-06-01T12:40:32;5.10;;;4.22;;
56116;SDS011;41989;45.356;20.392;2023-06-01T12:43:02;5.15;;;4.03;;
56116;SDS011;41989;45.356;20.392;2023-06-01T12:45:36;5.67;;;4.27;;
56116;SDS011;41989;45.356;20.392;2023-06-01T12:48:03;5.80;;;4.15;;
56116;SDS011;41989;45.356;20.392;2023-06-01T12:50:30;7.93;;;4.47;;
56116;SDS011;41989;45.356;20.392;2023-06-01T12:52:56;6.43;;;4.03;;
56116;SDS011;41989;45.356;20.392;2023-06-01T12:55:22;5.07;;;3.53;;
56116;SDS011;41989;45.356;20.392;2023-06-01T12:57:55;7.45;;;4.32;;
56116;SDS011;41989;45.356;20.392;2023-06-01T13:00:21;11.65;;;5.03;;
56116;SDS011;41989;45.356;20.392;2023-06-01T13:02:47;6.72;;;3.78;;
56116;SDS011;41989;45.356;20.392;2023-06-01T13:05:15;11.82;;;4.28;;
56116;SDS011;41989;45.356;20.392;2023-06-01T13:07:42;7.03;;;4.35;;
56116;SDS011;41989;45.356;20.392;2023-06-01T13:10:10;6.60;;;3.83;;
56116;SDS011;41989;45.356;20.392;2023-06-01T13:12:36;13.75;;;4.15;;
56116;SDS011;41989;45.356;20.392;2023-06-01T13:15:02;8.68;;;3.80;;
56116;SDS011;41989;45.356;20.392;2023-06-01T13:17:29;10.30;;;4.03;;
56116;SDS011;41989;45.356;20.392;2023-06-01T13:19:55;6.40;;;3.72;;
56116;SDS011;41989;45.356;20.392;2023-06-01T13:22:21;12.15;;;4.15;;
56116;SDS011;41989;45.356;20.392;2023-06-01T13:24:47;9.38;;;3.92;;
56116;SDS011;41989;45.356;20.392;2023-06-01T13:27:13;11.52;;;4.53;;
56116;SDS011;41989;45.356;20.392;2023-06-01T13:29:40;8.00;;;4.10;;
56116;SDS011;41989;45.356;20.392;2023-06-01T13:32:07;6.53;;;3.72;;
56116;SDS011;41989;45.356;20.392;2023-06-01T13:34:33;8.43;;;3.60;;
56116;SDS011;41989;45.356;20.392;2023-06-01T13:37:00;8.50;;;4.30;;
56116;SDS011;41989;45.356;20.392;2023-06-01T13:39:30;5.55;;;3.65;;
56116;SDS011;41989;45.356;20.392;2023-06-01T13:41:56;5.85;;;4.05;;
56116;SDS011;41989;45.356;20.392;2023-06-01T13:44:22;9.25;;;4.32;;
56116;SDS011;41989;45.356;20.392;2023-06-01T13:46:48;10.27;;;4.47;;
56116;SDS011;41989;45.356;20.392;2023-06-01T13:49:14;11.68;;;4.95;;
56116;SDS011;41989;45.356;20.392;2023-06-01T13:51:43;9.98;;;4.78;;
56116;SDS011;41989;45.356;20.392;2023-06-01T13:54:09;6.40;;;3.58;;
56116;SDS011;41989;45.356;20.392;2023-06-01T13:56:38;9.07;;;4.22;;
56116;SDS011;41989;45.356;20.392;2023-06-01T13:59:04;8.02;;;4.10;;
56116;SDS011;41989;45.356;20.392;2023-06-01T14:01:30;11.38;;;4.10;;
56116;SDS011;41989;45.356;20.392;2023-06-01T14:03:56;8.82;;;4.10;;
56116;SDS011;41989;45.356;20.392;2023-06-01T14:06:22;6.07;;;3.70;;
56116;SDS011;41989;45.356;20.392;2023-06-01T14:08:48;8.57;;;3.88;;
56116;SDS011;41989;45.356;20.392;2023-06-01T14:11:14;7.40;;;3.90;;
56116;SDS011;41989;45.356;20.392;2023-06-01T14:13:40;9.25;;;4.35;;
56116;SDS011;41989;45.356;20.392;2023-06-01T14:16:06;10.27;;;3.90;;
56116;SDS011;41989;45.356;20.392;2023-06-01T14:18:32;6.07;;;3.90;;
56116;SDS011;41989;45.356;20.392;2023-06-01T14:21:02;7.20;;;4.45;;
56116;SDS011;41989;45.356;20.392;2023-06-01T14:25:54;5.32;;;3.67;;
56116;SDS011;41989;45.356;20.392;2023-06-01T14:28:21;7.10;;;3.35;;
56116;SDS011;41989;45.356;20.392;2023-06-01T14:30:47;4.85;;;3.42;;
56116;SDS011;41989;45.356;20.392;2023-06-01T14:33:13;6.25;;;3.88;;
56116;SDS011;41989;45.356;20.392;2023-06-01T14:35:39;7.40;;;4.00;;
56116;SDS011;41989;45.356;20.392;2023-06-01T14:38:05;6.32;;;4.15;;
56116;SDS011;41989;45.356;20.392;2023-06-01T14:40:31;5.50;;;3.97;;
56116;SDS011;41989;45.356;20.392;2023-06-01T14:42:57;8.32;;;3.70;;
56116;SDS011;41989;45.356;20.392;2023-06-01T14:45:24;8.40;;;4.22;;
56116;SDS011;41989;45.356;20.392;2023-06-01T14:47:50;9.57;;;3.90;;
56116;SDS011;41989;45.356;20.392;2023-06-01T14:50:16;7.13;;;3.55;;
56116;SDS011;41989;45.356;20.392;2023-06-01T14:52:42;8.52;;;4.20;;
56116;SDS011;41989;45.356;20.392;2023-06-01T14:55:09;8.80;;;4.53;;
56116;SDS011;41989;45.356;20.392;2023-06-01T14:57:35;8.15;;;4.40;;
56116;SDS011;41989;45.356;20.392;2023-06-01T15:00:01;5.60;;;3.50;;
56116;SDS011;41989;45.356;20.392;2023-06-01T15:02:27;5.57;;;3.83;;
56116;SDS011;41989;45.356;20.392;2023-06-01T15:04:53;6.88;;;3.85;;
56116;SDS011;41989;45.356;20.392;2023-06-01T15:07:19;8.77;;;3.97;;
56116;SDS011;41989;45.356;20.392;2023-06-01T15:09:48;5.50;;;3.83;;
56116;SDS011;41989;45.356;20.392;2023-06-01T15:12:14;11.77;;;4.55;;